Leatherhead, United Kingdom

1:45 AM GMT on February 07, 2016 (GMT +0000)
Thistle Cottages | | Change Station
CLOSE
Current Station
Personal Weather Station
Location: Leatherhead, SURREY
Elevation: 150 ft
Nearby Weather Stations

Elev 150 ft 51.31 °N, 0.33 °W | Updated 2 hours ago

Rain
Rain
42.6 °F
Feels Like 43 °F
N
0.7
Wind Variable Wind from SW
Gusts 4.5 mph

Today
High -- | Low -- °F
--% Chance of Precip.
Yesterday
High -- | Low -- °F
Precip. -- in
Pressure 29.24 in
Visibility 6.2 miles
Clouds Few 2400 ft
Windchill 43 °F
Dew Point 41 °F
Humidity 93%
Rainfall in
Snow Depth Not available.
7:30 AM 5:01 PM
Waning Crescent, 3% visible
METAR EGKK 070120Z 21006KT 9999 FEW024 05/04 Q0990
Pressure 29.24 in
Visibility 6.2 miles
Clouds Few 2400 ft
Windchill 43 °F
Dew Point 41 °F
Humidity 93%
Rainfall in
Snow Depth Not available.
7:30 AM 5:01 PM
Waning Crescent, 3% visible
METAR EGKK 070120Z 21006KT 9999 FEW024 05/04 Q0990

10-Day Weather Forecast

Almanac

Astronomy

Feb. 07, 2016 Rise Set
Actual Time
Civil Twilight
Nautical Twilight
Astronomical Twilight
Moon
Length of Visible Light
Length of Day
Tomorrow will be .
, % of the Moon is Illuminated

Today's Extremes

Country Highs Country Lows

Community

WunderPhotos

Upload Photos

1,891,123 photos uploaded!

WunderBlog® & News

Nearby

Air Quality

  Air Quality AQ Index Pollutant
Not available.

Snow Depth

Station Depth Elevation

Earthquake Activity

City Distance Mag. Time & Date
Minimum magnitude displayed is 2.5.

Coastal Water Temperatures

Place Temperature

Stations

Nearby Weather Stations

Station Location Temp. Windchill Dew Point Humidity Wind Precip. Elev Updated Type